sensor_id;sensor_type;location;lat;lon;timestamp;pressure;altitude;pressure_sealevel;temperature
64904;BMP280;51401;48.882;12.598;2022-07-11T00:01:41;98324.75;;;13.48
64904;BMP280;51401;48.882;12.598;2022-07-11T00:04:07;98322.88;;;13.52
64904;BMP280;51401;48.882;12.598;2022-07-11T00:06:32;98322.13;;;13.55
64904;BMP280;51401;48.882;12.598;2022-07-11T00:08:57;98316.13;;;13.61
64904;BMP280;51401;48.882;12.598;2022-07-11T00:11:23;98317.25;;;13.64
64904;BMP280;51401;48.882;12.598;2022-07-11T00:13:48;98328.78;;;13.70
64904;BMP280;51401;48.882;12.598;2022-07-11T00:16:15;98316.09;;;13.75
64904;BMP280;51401;48.882;12.598;2022-07-11T00:18:40;98310.88;;;13.79
64904;BMP280;51401;48.882;12.598;2022-07-11T00:21:05;98314.22;;;13.79
64904;BMP280;51401;48.882;12.598;2022-07-11T00:23:31;98310.13;;;13.82
64904;BMP280;51401;48.882;12.598;2022-07-11T00:25:56;98311.63;;;13.83
64904;BMP280;51401;48.882;12.598;2022-07-11T00:28:21;98310.13;;;13.85
64904;BMP280;51401;48.882;12.598;2022-07-11T00:30:47;98307.88;;;13.80
64904;BMP280;51401;48.882;12.598;2022-07-11T00:33:12;98306.41;;;13.79
64904;BMP280;51401;48.882;12.598;2022-07-11T00:35:37;98305.31;;;13.77
64904;BMP280;51401;48.882;12.598;2022-07-11T00:38:03;98302.72;;;13.73
64904;BMP280;51401;48.882;12.598;2022-07-11T00:40:28;98306.44;;;13.76
64904;BMP280;51401;48.882;12.598;2022-07-11T00:42:53;98312.75;;;13.75
64904;BMP280;51401;48.882;12.598;2022-07-11T00:45:19;98296.00;;;13.76
64904;BMP280;51401;48.882;12.598;2022-07-11T00:47:44;98311.28;;;13.74
64904;BMP280;51401;48.882;12.598;2022-07-11T00:50:10;98301.97;;;13.73
64904;BMP280;51401;48.882;12.598;2022-07-11T00:52:35;98304.94;;;13.75
64904;BMP280;51401;48.882;12.598;2022-07-11T00:55:02;98306.09;;;13.74
64904;BMP280;51401;48.882;12.598;2022-07-11T00:57:27;98304.19;;;13.71
64904;BMP280;51401;48.882;12.598;2022-07-11T00:59:53;98303.81;;;13.69
64904;BMP280;51401;48.882;12.598;2022-07-11T01:02:18;98309.78;;;13.69
64904;BMP280;51401;48.882;12.598;2022-07-11T01:04:44;98306.81;;;13.71
64904;BMP280;51401;48.882;12.598;2022-07-11T01:07:09;98306.81;;;13.67
64904;BMP280;51401;48.882;12.598;2022-07-11T01:09:35;98303.47;;;13.63
64904;BMP280;51401;48.882;12.598;2022-07-11T01:12:00;98299.00;;;13.71
64904;BMP280;51401;48.882;12.598;2022-07-11T01:14:25;98293.03;;;13.70
64904;BMP280;51401;48.882;12.598;2022-07-11T01:16:52;98293.03;;;13.70
64904;BMP280;51401;48.882;12.598;2022-07-11T01:19:17;98296.75;;;13.73
64904;BMP280;51401;48.882;12.598;2022-07-11T01:21:48;98294.91;;;13.70
64904;BMP280;51401;48.882;12.598;2022-07-11T01:24:14;98288.56;;;13.71
64904;BMP280;51401;48.882;12.598;2022-07-11T01:26:40;98284.13;;;13.68
64904;BMP280;51401;48.882;12.598;2022-07-11T01:29:07;98287.44;;;13.68
64904;BMP280;51401;48.882;12.598;2022-07-11T01:31:34;98287.84;;;13.67
64904;BMP280;51401;48.882;12.598;2022-07-11T01:33:59;98285.22;;;13.63
64904;BMP280;51401;48.882;12.598;2022-07-11T01:36:25;98288.97;;;13.66
64904;BMP280;51401;48.882;12.598;2022-07-11T01:38:51;98288.59;;;13.64
64904;BMP280;51401;48.882;12.598;2022-07-11T01:41:16;98284.84;;;13.65
64904;BMP280;51401;48.882;12.598;2022-07-11T01:43:41;98290.44;;;13.63
64904;BMP280;51401;48.882;12.598;2022-07-11T01:46:07;98288.19;;;13.65
64904;BMP280;51401;48.882;12.598;2022-07-11T01:48:32;98286.00;;;13.64
64904;BMP280;51401;48.882;12.598;2022-07-11T01:50:58;98290.44;;;13.67
64904;BMP280;51401;48.882;12.598;2022-07-11T01:53:23;98285.59;;;13.69
64904;BMP280;51401;48.882;12.598;2022-07-11T01:55:48;98280.00;;;13.70
64904;BMP280;51401;48.882;12.598;2022-07-11T01:58:14;98282.63;;;13.67
64904;BMP280;51401;48.882;12.598;2022-07-11T02:00:39;98288.59;;;13.64
64904;BMP280;51401;48.882;12.598;2022-07-11T02:03:05;98276.31;;;13.64
64904;BMP280;51401;48.882;12.598;2022-07-11T02:05:30;98278.91;;;13.64
64904;BMP280;51401;48.882;12.598;2022-07-11T02:07:56;98275.22;;;13.62
64904;BMP280;51401;48.882;12.598;2022-07-11T02:10:44;98267.03;;;13.60
64904;BMP280;51401;48.882;12.598;2022-07-11T02:13:12;98268.16;;;13.52
64904;BMP280;51401;48.882;12.598;2022-07-11T02:15:38;98268.16;;;13.49
64904;BMP280;51401;48.882;12.598;2022-07-11T02:18:04;98270.75;;;13.45
64904;BMP280;51401;48.882;12.598;2022-07-11T02:20:30;98269.66;;;13.46
64904;BMP280;51401;48.882;12.598;2022-07-11T02:22:55;98271.53;;;13.42
64904;BMP280;51401;48.882;12.598;2022-07-11T02:25:21;98267.81;;;13.43
64904;BMP280;51401;48.882;12.598;2022-07-11T02:27:48;98264.81;;;13.48
64904;BMP280;51401;48.882;12.598;2022-07-11T02:30:13;98265.91;;;13.51
64904;BMP280;51401;48.882;12.598;2022-07-11T02:32:38;98274.47;;;13.55
64904;BMP280;51401;48.882;12.598;2022-07-11T02:35:04;98271.88;;;13.55
64904;BMP280;51401;48.882;12.598;2022-07-11T02:37:30;98273.34;;;13.59
64904;BMP280;51401;48.882;12.598;2022-07-11T02:39:55;98265.53;;;13.59
64904;BMP280;51401;48.882;12.598;2022-07-11T02:42:20;98262.56;;;13.60
64904;BMP280;51401;48.882;12.598;2022-07-11T02:44:46;98266.25;;;13.70
64904;BMP280;51401;48.882;12.598;2022-07-11T02:47:11;98269.22;;;13.68
64904;BMP280;51401;48.882;12.598;2022-07-11T02:49:39;98268.13;;;13.66
64904;BMP280;51401;48.882;12.598;2022-07-11T02:52:05;98265.53;;;13.66
64904;BMP280;51401;48.882;12.598;2022-07-11T02:54:30;98266.25;;;13.63
64904;BMP280;51401;48.882;12.598;2022-07-11T02:56:56;98264.75;;;13.65
64904;BMP280;51401;48.882;12.598;2022-07-11T02:59:21;98267.72;;;13.67
64904;BMP280;51401;48.882;12.598;2022-07-11T03:01:47;98267.75;;;13.64
64904;BMP280;51401;48.882;12.598;2022-07-11T03:04:12;98272.97;;;13.64
64904;BMP280;51401;48.882;12.598;2022-07-11T03:06:38;98267.03;;;13.60
64904;BMP280;51401;48.882;12.598;2022-07-11T03:09:04;98266.25;;;13.59
64904;BMP280;51401;48.882;12.598;2022-07-11T03:11:30;98267.03;;;13.60
64904;BMP280;51401;48.882;12.598;2022-07-11T03:13:55;98277.44;;;13.60
64904;BMP280;51401;48.882;12.598;2022-07-11T03:16:21;98269.25;;;13.61
64904;BMP280;51401;48.882;12.598;2022-07-11T03:18:46;98267.75;;;13.64
64904;BMP280;51401;48.882;12.598;2022-07-11T03:21:11;98270.72;;;13.62
64904;BMP280;51401;48.882;12.598;2022-07-11T03:23:37;98273.72;;;13.61
64904;BMP280;51401;48.882;12.598;2022-07-11T03:26:02;98272.97;;;13.64
64904;BMP280;51401;48.882;12.598;2022-07-11T03:28:28;98269.59;;;13.67
64904;BMP280;51401;48.882;12.598;2022-07-11T03:30:54;98275.56;;;13.64
64904;BMP280;51401;48.882;12.598;2022-07-11T03:33:20;98277.41;;;13.67
64904;BMP280;51401;48.882;12.598;2022-07-11T03:35:45;98272.56;;;13.65
64904;BMP280;51401;48.882;12.598;2022-07-11T03:38:12;98271.44;;;13.63
64904;BMP280;51401;48.882;12.598;2022-07-11T03:40:38;98270.72;;;13.66
64904;BMP280;51401;48.882;12.598;2022-07-11T03:43:03;98274.41;;;13.68
64904;BMP280;51401;48.882;12.598;2022-07-11T03:45:29;98272.94;;;13.71
64904;BMP280;51401;48.882;12.598;2022-07-11T03:47:54;98281.13;;;13.73
64904;BMP280;51401;48.882;12.598;2022-07-11T03:50:20;98273.66;;;13.75
64904;BMP280;51401;48.882;12.598;2022-07-11T03:52:46;98281.13;;;13.73
64904;BMP280;51401;48.882;12.598;2022-07-11T03:55:11;98281.09;;;13.76
64904;BMP280;51401;48.882;12.598;2022-07-11T03:57:37;98277.00;;;13.79
64904;BMP280;51401;48.882;12.598;2022-07-11T04:00:04;98279.22;;;13.84
64904;BMP280;51401;48.882;12.598;2022-07-11T04:02:31;98275.84;;;13.90
64904;BMP280;51401;48.882;12.598;2022-07-11T04:04:57;98277.69;;;13.96
64904;BMP280;51401;48.882;12.598;2022-07-11T04:07:22;98292.22;;;13.97
64904;BMP280;51401;48.882;12.598;2022-07-11T04:09:48;98279.53;;;13.99
64904;BMP280;51401;48.882;12.598;2022-07-11T04:12:13;98290.69;;;14.00
64904;BMP280;51401;48.882;12.598;2022-07-11T04:14:38;98283.25;;;14.02
64904;BMP280;51401;48.882;12.598;2022-07-11T04:17:04;98291.41;;;14.04
64904;BMP280;51401;48.882;12.598;2022-07-11T04:19:29;98286.19;;;14.11
64904;BMP280;51401;48.882;12.598;2022-07-11T04:21:55;98294.75;;;14.11
64904;BMP280;51401;48.882;12.598;2022-07-11T04:24:21;98294.38;;;14.13
64904;BMP280;51401;48.882;12.598;2022-07-11T04:26:46;98293.59;;;14.19
64904;BMP280;51401;48.882;12.598;2022-07-11T04:29:12;98299.56;;;14.16
64904;BMP280;51401;48.882;12.598;2022-07-11T04:31:37;98303.25;;;14.22
64904;BMP280;51401;48.882;12.598;2022-07-11T04:34:03;98305.47;;;14.30
64904;BMP280;51401;48.882;12.598;2022-07-11T04:36:28;98302.44;;;14.39
64904;BMP280;51401;48.882;12.598;2022-07-11T04:38:53;98294.97;;;14.41
64904;BMP280;51401;48.882;12.598;2022-07-11T04:41:19;98300.19;;;14.41
64904;BMP280;51401;48.882;12.598;2022-07-11T04:43:45;98299.38;;;14.50
64904;BMP280;51401;48.882;12.598;2022-07-11T04:46:10;98290.38;;;14.58
64904;BMP280;51401;48.882;12.598;2022-07-11T04:48:35;98298.19;;;14.62
64904;BMP280;51401;48.882;12.598;2022-07-11T04:51:04;98295.25;;;14.56
64904;BMP280;51401;48.882;12.598;2022-07-11T04:53:30;98311.97;;;14.62
64904;BMP280;51401;48.882;12.598;2022-07-11T04:55:55;98311.94;;;14.69
64904;BMP280;51401;48.882;12.598;2022-07-11T04:58:20;98303.00;;;14.70
64904;BMP280;51401;48.882;12.598;2022-07-11T05:00:46;98315.56;;;14.85
64904;BMP280;51401;48.882;12.598;2022-07-11T05:03:11;98322.50;;;14.99
64904;BMP280;51401;48.882;12.598;2022-07-11T05:05:36;98321.78;;;15.01
64904;BMP280;51401;48.882;12.598;2022-07-11T05:08:02;98328.47;;;15.02
64904;BMP280;51401;48.882;12.598;2022-07-11T05:10:28;98333.38;;;14.94
64904;BMP280;51401;48.882;12.598;2022-07-11T05:12:56;98326.75;;;14.86
64904;BMP280;51401;48.882;12.598;2022-07-11T05:15:21;98344.78;;;14.63
64904;BMP280;51401;48.882;12.598;2022-07-11T05:17:48;98335.41;;;14.69
64904;BMP280;51401;48.882;12.598;2022-07-11T05:20:13;98332.41;;;14.74
64904;BMP280;51401;48.882;12.598;2022-07-11T05:22:38;98334.34;;;14.63
64904;BMP280;51401;48.882;12.598;2022-07-11T05:25:04;98341.44;;;14.59
64904;BMP280;51401;48.882;12.598;2022-07-11T05:27:29;98334.38;;;14.56
64904;BMP280;51401;48.882;12.598;2022-07-11T05:29:55;98341.78;;;14.61
64904;BMP280;51401;48.882;12.598;2022-07-11T05:32:20;98345.84;;;14.69
64904;BMP280;51401;48.882;12.598;2022-07-11T05:34:45;98349.94;;;14.73
64904;BMP280;51401;48.882;12.598;2022-07-11T05:37:11;98331.94;;;14.89
64904;BMP280;51401;48.882;12.598;2022-07-11T05:39:36;98340.03;;;15.01
64904;BMP280;51401;48.882;12.598;2022-07-11T05:42:01;98344.34;;;14.75
64904;BMP280;51401;48.882;12.598;2022-07-11T05:44:27;98337.19;;;14.86
64904;BMP280;51401;48.882;12.598;2022-07-11T05:46:52;98344.56;;;14.94
64904;BMP280;51401;48.882;12.598;2022-07-11T05:49:17;98340.84;;;14.95
64904;BMP280;51401;48.882;12.598;2022-07-11T05:51:43;98333.03;;;14.92
64904;BMP280;51401;48.882;12.598;2022-07-11T05:54:08;98343.22;;;14.76
64904;BMP280;51401;48.882;12.598;2022-07-11T05:56:33;98338.81;;;14.63
64904;BMP280;51401;48.882;12.598;2022-07-11T05:58:59;98357.81;;;14.63
64904;BMP280;51401;48.882;12.598;2022-07-11T06:01:24;98357.44;;;14.61
64904;BMP280;51401;48.882;12.598;2022-07-11T06:03:50;98356.34;;;14.62
64904;BMP280;51401;48.882;12.598;2022-07-11T06:06:16;98361.03;;;14.88
64904;BMP280;51401;48.882;12.598;2022-07-11T06:08:43;98367.69;;;14.96
64904;BMP280;51401;48.882;12.598;2022-07-11T06:11:09;98367.69;;;14.96
64904;BMP280;51401;48.882;12.598;2022-07-11T06:13:36;98363.22;;;14.96
64904;BMP280;51401;48.882;12.598;2022-07-11T06:16:03;98359.41;;;15.04
64904;BMP280;51401;48.882;12.598;2022-07-11T06:18:29;98362.81;;;15.01
64904;BMP280;51401;48.882;12.598;2022-07-11T06:20:54;98361.69;;;15.02
64904;BMP280;51401;48.882;12.598;2022-07-11T06:23:20;98367.97;;;15.08
64904;BMP280;51401;48.882;12.598;2022-07-11T06:25:45;98378.09;;;15.02
64904;BMP280;51401;48.882;12.598;2022-07-11T06:28:10;98366.19;;;14.95
64904;BMP280;51401;48.882;12.598;2022-07-11T06:30:35;98364.47;;;14.74
64904;BMP280;51401;48.882;12.598;2022-07-11T06:33:02;98377.25;;;14.55
64904;BMP280;51401;48.882;12.598;2022-07-11T06:35:28;98379.13;;;14.55
64904;BMP280;51401;48.882;12.598;2022-07-11T06:37:53;98375.06;;;14.54
64904;BMP280;51401;48.882;12.598;2022-07-11T06:40:19;98381.38;;;14.56
64904;BMP280;51401;48.882;12.598;2022-07-11T06:42:44;98384.22;;;14.79
64904;BMP280;51401;48.882;12.598;2022-07-11T06:45:10;98389.69;;;14.95
64904;BMP280;51401;48.882;12.598;2022-07-11T06:47:36;98379.59;;;15.03
64904;BMP280;51401;48.882;12.598;2022-07-11T06:50:01;98378.78;;;15.13
64904;BMP280;51401;48.882;12.598;2022-07-11T06:52:27;98383.19;;;15.20
64904;BMP280;51401;48.882;12.598;2022-07-11T06:54:52;98371.53;;;15.28
64904;BMP280;51401;48.882;12.598;2022-07-11T06:57:17;98375.28;;;15.30
64904;BMP280;51401;48.882;12.598;2022-07-11T06:59:43;98372.00;;;15.59
64904;BMP280;51401;48.882;12.598;2022-07-11T07:02:08;98375.38;;;15.59
64904;BMP280;51401;48.882;12.598;2022-07-11T07:04:33;98368.75;;;16.17
64904;BMP280;51401;48.882;12.598;2022-07-11T07:06:59;98374.81;;;16.11
64904;BMP280;51401;48.882;12.598;2022-07-11T07:09:25;98373.69;;;16.42
64904;BMP280;51401;48.882;12.598;2022-07-11T07:11:52;98366.88;;;16.47
64904;BMP280;51401;48.882;12.598;2022-07-11T07:14:17;98375.31;;;16.29
64904;BMP280;51401;48.882;12.598;2022-07-11T07:16:42;98371.56;;;16.59
64904;BMP280;51401;48.882;12.598;2022-07-11T07:19:08;98374.38;;;16.71
64904;BMP280;51401;48.882;12.598;2022-07-11T07:21:33;98377.34;;;17.41
64904;BMP280;51401;48.882;12.598;2022-07-11T07:23:58;98381.16;;;17.79
64904;BMP280;51401;48.882;12.598;2022-07-11T07:26:26;98376.47;;;18.24
64904;BMP280;51401;48.882;12.598;2022-07-11T07:28:52;98375.19;;;18.13
64904;BMP280;51401;48.882;12.598;2022-07-11T07:31:17;98369.69;;;17.50
64904;BMP280;51401;48.882;12.598;2022-07-11T07:33:42;98378.72;;;17.26
64904;BMP280;51401;48.882;12.598;2022-07-11T07:36:08;98373.56;;;17.65
64904;BMP280;51401;48.882;12.598;2022-07-11T07:38:33;98374.41;;;17.78
64904;BMP280;51401;48.882;12.598;2022-07-11T07:40:58;98374.13;;;18.30
64904;BMP280;51401;48.882;12.598;2022-07-11T07:43:24;98376.28;;;18.66
64904;BMP280;51401;48.882;12.598;2022-07-11T07:45:49;98375.31;;;18.60
64904;BMP280;51401;48.882;12.598;2022-07-11T07:48:14;98374.97;;;18.90
64904;BMP280;51401;48.882;12.598;2022-07-11T07:50:40;98366.28;;;18.10
64904;BMP280;51401;48.882;12.598;2022-07-11T07:53:05;98367.16;;;18.04
64904;BMP280;51401;48.882;12.598;2022-07-11T07:55:33;98379.19;;;18.36
64904;BMP280;51401;48.882;12.598;2022-07-11T07:57:58;98373.97;;;18.52
64904;BMP280;51401;48.882;12.598;2022-07-11T08:00:24;98373.66;;;18.50
64904;BMP280;51401;48.882;12.598;2022-07-11T08:03:07;98377.91;;;18.44
64904;BMP280;51401;48.882;12.598;2022-07-11T08:05:36;98374.38;;;18.66
64904;BMP280;51401;48.882;12.598;2022-07-11T08:08:02;98372.00;;;18.88
64904;BMP280;51401;48.882;12.598;2022-07-11T08:10:29;98372.16;;;18.34
64904;BMP280;51401;48.882;12.598;2022-07-11T08:12:54;98366.06;;;18.21
64904;BMP280;51401;48.882;12.598;2022-07-11T08:15:20;98371.16;;;18.28
64904;BMP280;51401;48.882;12.598;2022-07-11T08:17:45;98373.00;;;18.46
64904;BMP280;51401;48.882;12.598;2022-07-11T08:20:10;98372.25;;;18.93
64904;BMP280;51401;48.882;12.598;2022-07-11T08:22:36;98369.13;;;18.66
64904;BMP280;51401;48.882;12.598;2022-07-11T08:25:01;98364.63;;;18.51
64904;BMP280;51401;48.882;12.598;2022-07-11T08:27:27;98370.78;;;18.10
64904;BMP280;51401;48.882;12.598;2022-07-11T08:29:52;98372.38;;;18.39
64904;BMP280;51401;48.882;12.598;2022-07-11T08:32:17;98371.63;;;18.23
64904;BMP280;51401;48.882;12.598;2022-07-11T08:34:44;98366.63;;;17.93
64904;BMP280;51401;48.882;12.598;2022-07-11T08:37:09;98370.59;;;18.01
64904;BMP280;51401;48.882;12.598;2022-07-11T08:39:35;98373.72;;;18.47
64904;BMP280;51401;48.882;12.598;2022-07-11T08:42:00;98382.19;;;19.01
64904;BMP280;51401;48.882;12.598;2022-07-11T08:44:26;98372.00;;;19.47
64904;BMP280;51401;48.882;12.598;2022-07-11T08:46:52;98369.66;;;19.77
64904;BMP280;51401;48.882;12.598;2022-07-11T08:49:18;98364.38;;;18.77
64904;BMP280;51401;48.882;12.598;2022-07-11T08:51:44;98383.44;;;19.41
64904;BMP280;51401;48.882;12.598;2022-07-11T08:54:11;98381.06;;;20.72
64904;BMP280;51401;48.882;12.598;2022-07-11T08:56:36;98377.25;;;21.40
64904;BMP280;51401;48.882;12.598;2022-07-11T08:59:03;98366.84;;;20.57
64904;BMP280;51401;48.882;12.598;2022-07-11T09:01:35;98373.19;;;20.35
64904;BMP280;51401;48.882;12.598;2022-07-11T09:04:02;98372.16;;;21.24
64904;BMP280;51401;48.882;12.598;2022-07-11T09:06:28;98360.44;;;20.58
64904;BMP280;51401;48.882;12.598;2022-07-11T09:08:58;98361.25;;;20.55
64904;BMP280;51401;48.882;12.598;2022-07-11T09:11:23;98348.13;;;20.19
64904;BMP280;51401;48.882;12.598;2022-07-11T09:13:49;98337.50;;;20.22
64904;BMP280;51401;48.882;12.598;2022-07-11T09:16:17;98332.84;;;20.26
64904;BMP280;51401;48.882;12.598;2022-07-11T09:18:43;98344.81;;;20.51
64904;BMP280;51401;48.882;12.598;2022-07-11T09:21:10;98335.78;;;21.19
64904;BMP280;51401;48.882;12.598;2022-07-11T09:23:56;98341.34;;;21.21
64904;BMP280;51401;48.882;12.598;2022-07-11T09:26:43;98336.19;;;21.90
64904;BMP280;51401;48.882;12.598;2022-07-11T09:29:14;98338.94;;;21.86
64904;BMP280;51401;48.882;12.598;2022-07-11T09:31:41;98342.47;;;20.78
64904;BMP280;51401;48.882;12.598;2022-07-11T09:34:14;98339.59;;;21.69
64904;BMP280;51401;48.882;12.598;2022-07-11T09:36:44;98354.72;;;22.73
64904;BMP280;51401;48.882;12.598;2022-07-11T09:39:15;98346.38;;;23.10
64904;BMP280;51401;48.882;12.598;2022-07-11T09:41:41;98354.91;;;22.78
64904;BMP280;51401;48.882;12.598;2022-07-11T09:46:33;98350.44;;;24.18
64904;BMP280;51401;48.882;12.598;2022-07-11T09:48:59;98348.69;;;23.25
64904;BMP280;51401;48.882;12.598;2022-07-11T09:51:26;98345.50;;;22.77
64904;BMP280;51401;48.882;12.598;2022-07-11T09:53:55;98354.75;;;22.16
64904;BMP280;51401;48.882;12.598;2022-07-11T09:56:25;98339.56;;;21.60
64904;BMP280;51401;48.882;12.598;2022-07-11T09:59:04;98331.94;;;20.66
64904;BMP280;51401;48.882;12.598;2022-07-11T10:01:30;98348.75;;;20.47
64904;BMP280;51401;48.882;12.598;2022-07-11T10:03:56;98338.91;;;20.72
64904;BMP280;51401;48.882;12.598;2022-07-11T10:06:22;98354.13;;;19.95
64904;BMP280;51401;48.882;12.598;2022-07-11T10:08:50;98343.72;;;19.63
64904;BMP280;51401;48.882;12.598;2022-07-11T10:11:15;98350.59;;;19.33
64904;BMP280;51401;48.882;12.598;2022-07-11T10:13:41;98353.56;;;20.36
64904;BMP280;51401;48.882;12.598;2022-07-11T10:22:19;98340.66;;;20.75
64904;BMP280;51401;48.882;12.598;2022-07-11T10:24:59;98352.88;;;20.94
64904;BMP280;51401;48.882;12.598;2022-07-11T10:30:51;98349.00;;;20.86
64904;BMP280;51401;48.882;12.598;2022-07-11T10:33:18;98347.81;;;20.87
64904;BMP280;51401;48.882;12.598;2022-07-11T10:35:48;98342.16;;;20.76
64904;BMP280;51401;48.882;12.598;2022-07-11T10:38:15;98349.66;;;20.65
64904;BMP280;51401;48.882;12.598;2022-07-11T10:48:34;98357.34;;;20.60
64904;BMP280;51401;48.882;12.598;2022-07-11T10:53:32;98347.53;;;21.06
64904;BMP280;51401;48.882;12.598;2022-07-11T10:58:55;98361.06;;;20.62
64904;BMP280;51401;48.882;12.598;2022-07-11T11:01:21;98347.66;;;20.69
64904;BMP280;51401;48.882;12.598;2022-07-11T11:03:47;98356.00;;;21.01
64904;BMP280;51401;48.882;12.598;2022-07-11T11:06:14;98346.09;;;20.93
64904;BMP280;51401;48.882;12.598;2022-07-11T11:08:46;98350.84;;;21.19
64904;BMP280;51401;48.882;12.598;2022-07-11T11:16:41;98350.56;;;21.38
64904;BMP280;51401;48.882;12.598;2022-07-11T11:19:07;98345.53;;;21.52
64904;BMP280;51401;48.882;12.598;2022-07-11T11:21:32;98347.56;;;21.48
64904;BMP280;51401;48.882;12.598;2022-07-11T11:26:48;98345.00;;;20.69
64904;BMP280;51401;48.882;12.598;2022-07-11T11:29:22;98344.44;;;20.86
64904;BMP280;51401;48.882;12.598;2022-07-11T11:32:06;98338.72;;;21.21
64904;BMP280;51401;48.882;12.598;2022-07-11T11:34:32;98348.34;;;22.17
64904;BMP280;51401;48.882;12.598;2022-07-11T11:37:00;98350.72;;;22.33
64904;BMP280;51401;48.882;12.598;2022-07-11T11:39:28;98352.50;;;22.45
64904;BMP280;51401;48.882;12.598;2022-07-11T11:41:55;98354.53;;;22.41
64904;BMP280;51401;48.882;12.598;2022-07-11T11:44:25;98347.56;;;22.73
64904;BMP280;51401;48.882;12.598;2022-07-11T11:46:50;98346.00;;;22.28
64904;BMP280;51401;48.882;12.598;2022-07-11T11:49:17;98337.94;;;21.84
64904;BMP280;51401;48.882;12.598;2022-07-11T11:51:42;98350.19;;;22.08
64904;BMP280;51401;48.882;12.598;2022-07-11T11:54:09;98338.06;;;21.81
64904;BMP280;51401;48.882;12.598;2022-07-11T11:56:35;98341.47;;;21.90
64904;BMP280;51401;48.882;12.598;2022-07-11T11:59:10;98340.06;;;21.26
64904;BMP280;51401;48.882;12.598;2022-07-11T12:01:46;98336.22;;;20.84
64904;BMP280;51401;48.882;12.598;2022-07-11T12:04:16;98336.28;;;21.05
64904;BMP280;51401;48.882;12.598;2022-07-11T12:06:43;98345.56;;;21.19
64904;BMP280;51401;48.882;12.598;2022-07-11T12:09:14;98340.72;;;20.96
64904;BMP280;51401;48.882;12.598;2022-07-11T12:11:43;98335.19;;;21.03
64904;BMP280;51401;48.882;12.598;2022-07-11T12:14:10;98332.91;;;21.77
64904;BMP280;51401;48.882;12.598;2022-07-11T12:16:45;98339.50;;;22.20
64904;BMP280;51401;48.882;12.598;2022-07-11T12:19:18;98337.19;;;22.31
64904;BMP280;51401;48.882;12.598;2022-07-11T12:21:46;98325.09;;;22.12
64904;BMP280;51401;48.882;12.598;2022-07-11T12:24:16;98321.59;;;22.15
64904;BMP280;51401;48.882;12.598;2022-07-11T12:26:42;98316.13;;;22.75
64904;BMP280;51401;48.882;12.598;2022-07-11T12:31:54;98314.91;;;23.20
64904;BMP280;51401;48.882;12.598;2022-07-11T12:37:07;98314.88;;;24.48
64904;BMP280;51401;48.882;12.598;2022-07-11T12:39:34;98318.06;;;24.14
64904;BMP280;51401;48.882;12.598;2022-07-11T12:42:00;98323.81;;;24.36
64904;BMP280;51401;48.882;12.598;2022-07-11T12:44:27;98318.00;;;24.61
64904;BMP280;51401;48.882;12.598;2022-07-11T12:47:12;98312.53;;;24.64
64904;BMP280;51401;48.882;12.598;2022-07-11T12:49:38;98315.13;;;24.36
64904;BMP280;51401;48.882;12.598;2022-07-11T12:52:13;98327.97;;;25.03
64904;BMP280;51401;48.882;12.598;2022-07-11T12:54:39;98318.28;;;25.28
64904;BMP280;51401;48.882;12.598;2022-07-11T12:57:05;98311.88;;;25.20
64904;BMP280;51401;48.882;12.598;2022-07-11T12:59:32;98313.91;;;25.93
64904;BMP280;51401;48.882;12.598;2022-07-11T13:04:38;98313.47;;;24.61
64904;BMP280;51401;48.882;12.598;2022-07-11T13:10:07;98317.34;;;25.03
64904;BMP280;51401;48.882;12.598;2022-07-11T13:12:33;98321.78;;;26.21
64904;BMP280;51401;48.882;12.598;2022-07-11T13:15:04;98310.47;;;26.07
64904;BMP280;51401;48.882;12.598;2022-07-11T13:17:54;98303.38;;;26.18
64904;BMP280;51401;48.882;12.598;2022-07-11T13:20:25;98304.88;;;26.05
64904;BMP280;51401;48.882;12.598;2022-07-11T13:22:51;98305.66;;;25.23
64904;BMP280;51401;48.882;12.598;2022-07-11T13:25:19;98309.91;;;24.78
64904;BMP280;51401;48.882;12.598;2022-07-11T13:27:45;98299.81;;;24.16
64904;BMP280;51401;48.882;12.598;2022-07-11T13:30:13;98302.03;;;23.86
64904;BMP280;51401;48.882;12.598;2022-07-11T13:32:42;98307.28;;;25.07
64904;BMP280;51401;48.882;12.598;2022-07-11T13:35:09;98303.25;;;25.40
64904;BMP280;51401;48.882;12.598;2022-07-11T13:37:35;98291.72;;;25.28
64904;BMP280;51401;48.882;12.598;2022-07-11T13:40:03;98302.88;;;24.38
64904;BMP280;51401;48.882;12.598;2022-07-11T13:42:29;98298.41;;;24.44
64904;BMP280;51401;48.882;12.598;2022-07-11T13:44:54;98303.59;;;24.39
64904;BMP280;51401;48.882;12.598;2022-07-11T13:47:19;98305.66;;;25.23
64904;BMP280;51401;48.882;12.598;2022-07-11T13:49:45;98304.00;;;25.26
64904;BMP280;51401;48.882;12.598;2022-07-11T13:52:11;98303.34;;;25.45
64904;BMP280;51401;48.882;12.598;2022-07-11T13:54:36;98300.19;;;26.84
64904;BMP280;51401;48.882;12.598;2022-07-11T13:57:02;98300.31;;;27.30
64904;BMP280;51401;48.882;12.598;2022-07-11T13:59:27;98309.09;;;28.40
64904;BMP280;51401;48.882;12.598;2022-07-11T14:01:53;98303.78;;;27.41
64904;BMP280;51401;48.882;12.598;2022-07-11T14:04:18;98299.22;;;26.56
64904;BMP280;51401;48.882;12.598;2022-07-11T14:06:44;98299.25;;;26.62
64904;BMP280;51401;48.882;12.598;2022-07-11T14:09:09;98290.75;;;25.79
64904;BMP280;51401;48.882;12.598;2022-07-11T14:11:34;98287.72;;;25.18
64904;BMP280;51401;48.882;12.598;2022-07-11T14:14:00;98299.00;;;24.62
64904;BMP280;51401;48.882;12.598;2022-07-11T14:16:25;98295.59;;;24.99
64904;BMP280;51401;48.882;12.598;2022-07-11T14:18:51;98294.81;;;24.70
64904;BMP280;51401;48.882;12.598;2022-07-11T14:21:16;98293.50;;;24.51
64904;BMP280;51401;48.882;12.598;2022-07-11T14:23:42;98293.94;;;24.13
64904;BMP280;51401;48.882;12.598;2022-07-11T14:26:07;98288.94;;;24.06
64904;BMP280;51401;48.882;12.598;2022-07-11T14:28:34;98294.53;;;24.08
64904;BMP280;51401;48.882;12.598;2022-07-11T14:30:59;98281.75;;;23.83
64904;BMP280;51401;48.882;12.598;2022-07-11T14:33:25;98273.56;;;23.95
64904;BMP280;51401;48.882;12.598;2022-07-11T14:35:50;98273.97;;;23.80
64904;BMP280;51401;48.882;12.598;2022-07-11T14:38:15;98276.53;;;24.12